Pagina principală
METAR-TAF:

METAR-TAF

Aeroporturi :

Pearson Field

Vancouver, Washington, Statele Unite ale Americii

Latitudine: 45-37-24N, longitudine: 122-39-23W, elevație: 7 m

Observații meteo curente

Raportul a fost făcut în urmă cu 8 de minute, la 15:53 UTC
Vânt 5 kt de la Sud/Sud-est
Temperatură 20°C
Umiditate 60%
Presiune 1017 hPa
Vizibilitate: 16.1 km
Cer senin

METAR: KVUO 171553Z AUTO 15005KT 10SM CLR 20/12 A3002 RMK AO2 SLP164 T02000117

Ora: 09:01 (16:01 UTC)


TAF: lipsă

Observații și prognoze meteo pentru peste 4.000 de aeroporturi (rapoarte METAR și TAF).

Stațiile disponibile sunt reprezentate pe hartă prin puncte galbene și roșii.

Țineți indicatorul mouse-ului pe punctul dorit pentru a vedea denumirea stației.

Apoi, faceți clic pentru a vedea observațiile și prognozele meteorologice.

Pentru a schimba harta: Pentru mărire, faceți clic pe butoanele verzi cu cruce neagră; pentru micșorare, pe butonul verde cu o liniuță; pentru hărți învecinate, pe săgețile verzi.


METAR-TAF: